Nageezi, New Mexico
Current Conditions -  °F | °C
As of 9:53 AM on Sunday 23 Nov 2014 (Local Time) from KFMN Reporting Station
Unknown Precip Unknown Precip  
Wind Chill: 22°   Ceiling: 6500
Heat Index: 34°   Visibility: 10mi
Dew Point: 28°   Wind: 23mph
Humidity: 79%   Direction: 280°W
Pressure: 29.94"   Gusts: 30mph
Location:  36.27°N, 107.74°W
Report Text: KFMN 231653Z 28020G26KT 10SM UP SCT038 BKN065 01/M02 A2994 RMK AO2 PK WND 28031/1627 UPB46SNB21E46 SLP142 P0000 T00111022
Loading
Personal Weather Stations






























Interactive Weather Map New forecast layout! Learn more

10-Day Weather Forecast

Advertisements
Track Severe Weather on mobile